createdAt,value
2023-05-10T00:01:19.302Z,60.66
2023-05-10T00:06:21.241Z,61.91
2023-05-10T00:11:23.303Z,61.91
2023-05-10T00:16:24.935Z,61.67
2023-05-10T00:21:26.450Z,61.24
2023-05-10T00:26:27.941Z,60.83
2023-05-10T00:31:29.469Z,62.07
2023-05-10T00:36:32.162Z,62.56
2023-05-10T00:41:33.761Z,63.65
2023-05-10T00:46:35.464Z,63.86
2023-05-10T00:51:37.522Z,63.29
2023-05-10T00:56:39.057Z,63.07
2023-05-10T01:01:40.889Z,63.18
2023-05-10T01:06:42.605Z,63.12
2023-05-10T01:11:44.127Z,63.13
2023-05-10T01:16:45.640Z,62.89
2023-05-10T01:22:06.737Z,63.37
2023-05-10T01:27:38.058Z,63.31
2023-05-10T01:32:47.895Z,63.60
2023-05-10T01:38:00.911Z,63.19
2023-05-10T01:43:03.773Z,63.19
2023-05-10T01:48:09.933Z,62.72
2023-05-10T01:53:12.632Z,63.02
2023-05-10T01:58:32.902Z,62.25
2023-05-10T02:03:34.439Z,62.33
2023-05-10T02:08:36.287Z,61.53
2023-05-10T02:13:37.770Z,59.88
2023-05-10T02:18:39.283Z,60.87
2023-05-10T02:23:40.768Z,61.42
2023-05-10T02:28:42.278Z,61.61
2023-05-10T02:33:43.773Z,61.58
2023-05-10T02:38:45.574Z,61.89
2023-05-10T02:43:47.064Z,61.71
2023-05-10T02:48:48.582Z,62.13
2023-05-10T02:53:50.064Z,62.14
2023-05-10T02:58:51.559Z,61.54
2023-05-10T03:03:53.067Z,61.99
2023-05-10T03:08:54.579Z,60.94
2023-05-10T03:14:18.298Z,61.48
2023-05-10T03:19:30.536Z,61.07
2023-05-10T03:24:32.051Z,60.97
2023-05-10T03:29:33.596Z,60.52
2023-05-10T03:34:35.097Z,59.73
2023-05-10T03:39:36.688Z,59.09
2023-05-10T03:44:39.443Z,57.46
2023-05-10T03:49:40.941Z,56.88
2023-05-10T03:54:42.412Z,56.59
2023-05-10T03:59:43.892Z,56.46
2023-05-10T04:04:45.403Z,56.64
2023-05-10T04:09:46.897Z,56.93
2023-05-10T04:14:48.421Z,56.47
2023-05-10T04:19:49.917Z,56.61
2023-05-10T04:24:51.432Z,56.33
2023-05-10T04:29:52.963Z,56.69
2023-05-10T04:34:54.449Z,56.63
2023-05-10T04:39:55.958Z,56.46
2023-05-10T04:44:57.444Z,56.11
2023-05-10T04:49:59.389Z,55.52
2023-05-10T04:55:00.883Z,54.90
2023-05-10T05:00:02.895Z,54.53
2023-05-10T05:05:04.610Z,55.03
2023-05-10T05:10:07.692Z,55.20
2023-05-10T05:15:10.693Z,53.80
2023-05-10T05:20:12.502Z,55.70
2023-05-10T05:25:14.108Z,56.13
2023-05-10T05:30:15.834Z,57.07
2023-05-10T05:35:17.803Z,55.94
2023-05-10T05:40:19.419Z,56.88
2023-05-10T05:45:21.094Z,55.49
2023-05-10T05:50:22.595Z,56.14
2023-05-10T05:55:25.282Z,56.30
2023-05-10T06:00:26.872Z,56.98
2023-05-10T06:05:29.336Z,57.54
2023-05-10T06:10:31.487Z,57.76
2023-05-10T06:15:33.646Z,56.76
2023-05-10T06:20:35.173Z,56.54
2023-05-10T06:25:36.659Z,56.45
2023-05-10T06:30:38.319Z,57.06
2023-05-10T06:35:39.881Z,56.24
2023-05-10T06:40:44.289Z,56.09
2023-05-10T06:45:45.778Z,57.08
2023-05-10T06:50:47.332Z,57.41
2023-05-10T06:55:50.314Z,57.08
2023-05-10T07:00:51.876Z,57.33
2023-05-10T07:05:53.384Z,57.60
2023-05-10T07:10:54.883Z,57.55
2023-05-10T07:15:56.419Z,58.01
2023-05-10T07:20:58.405Z,58.85
2023-05-10T07:26:00.387Z,59.19
2023-05-10T07:31:01.934Z,59.59
2023-05-10T07:36:03.657Z,58.99
2023-05-10T07:41:05.154Z,58.86
2023-05-10T07:46:07.039Z,58.93
2023-05-10T07:51:10.376Z,58.63
2023-05-10T07:56:28.312Z,58.75
2023-05-10T08:01:31.373Z,58.11
2023-05-10T08:06:32.845Z,57.23
2023-05-10T08:11:35.118Z,57.31
2023-05-10T08:16:36.743Z,57.95
2023-05-10T08:21:38.419Z,58.05
2023-05-10T08:26:40.009Z,57.63
2023-05-10T08:31:41.547Z,57.99
2023-05-10T08:36:43.045Z,58.30
2023-05-10T08:41:45.100Z,57.86
2023-05-10T08:46:47.427Z,57.88
2023-05-10T08:51:52.039Z,57.15
2023-05-10T08:56:54.298Z,57.50
2023-05-10T09:01:58.218Z,57.20
2023-05-10T09:06:59.801Z,56.97
2023-05-10T09:12:01.320Z,57.06
2023-05-10T09:17:02.869Z,56.70
2023-05-10T09:22:04.425Z,57.33
2023-05-10T09:27:06.204Z,56.68
2023-05-10T09:32:07.710Z,57.08
2023-05-10T09:37:09.331Z,57.28
2023-05-10T09:42:10.882Z,57.13
2023-05-10T09:47:12.384Z,56.66
2023-05-10T09:52:14.071Z,56.86
2023-05-10T09:57:22.782Z,57.48
2023-05-10T10:02:30.234Z,57.66
2023-05-10T10:07:31.857Z,56.68
2023-05-10T10:12:33.414Z,57.08
2023-05-10T10:17:34.918Z,55.72
2023-05-10T10:22:37.447Z,55.48
2023-05-10T10:27:42.669Z,57.55
2023-05-10T10:33:28.947Z,57.16
2023-05-10T10:38:38.907Z,56.82
2023-05-10T10:43:40.398Z,56.34
2023-05-10T10:48:42.615Z,56.00
2023-05-10T10:53:44.184Z,54.39
2023-05-10T10:58:52.091Z,56.73
2023-05-10T11:03:59.314Z,56.14
2023-05-10T11:09:06.732Z,56.42
2023-05-10T11:14:08.331Z,56.82
2023-05-10T11:19:13.996Z,56.49
2023-05-10T11:24:26.775Z,56.14
2023-05-10T11:29:28.338Z,56.36
2023-05-10T11:34:31.374Z,56.21
2023-05-10T11:39:33.054Z,55.99
2023-05-10T11:44:34.531Z,56.10
2023-05-10T11:49:36.027Z,55.96
2023-05-10T11:54:37.601Z,55.34
2023-05-10T11:59:39.852Z,55.60
2023-05-10T12:04:42.757Z,55.84
2023-05-10T12:09:45.794Z,56.00
2023-05-10T12:14:51.274Z,55.73
2023-05-10T12:19:52.767Z,54.79
2023-05-10T12:24:54.272Z,55.79
2023-05-10T12:29:55.785Z,55.73
2023-05-10T12:34:57.280Z,55.54
2023-05-10T12:39:58.782Z,56.12
2023-05-10T12:45:00.295Z,55.61
2023-05-10T12:50:02.129Z,55.97
2023-05-10T12:55:04.181Z,55.70
2023-05-10T13:00:06.576Z,56.10
2023-05-10T13:05:08.278Z,57.04
2023-05-10T13:10:09.931Z,57.35
2023-05-10T13:15:11.559Z,57.34
2023-05-10T13:20:13.048Z,57.71
2023-05-10T13:25:14.565Z,56.61
2023-05-10T13:30:16.408Z,54.95
2023-05-10T13:35:18.111Z,56.54
2023-05-10T13:40:19.878Z,56.35
2023-05-10T13:45:21.842Z,56.57
2023-05-10T13:50:23.341Z,56.51
2023-05-10T13:55:24.833Z,56.38
2023-05-10T14:00:26.338Z,57.43
2023-05-10T14:05:28.203Z,56.89
2023-05-10T14:10:29.874Z,57.33
2023-05-10T14:15:31.677Z,57.24
2023-05-10T14:20:36.932Z,57.98
2023-05-10T14:25:39.057Z,57.51
2023-05-10T14:30:40.601Z,57.05
2023-05-10T14:35:42.149Z,57.40
2023-05-10T14:40:44.030Z,57.03
2023-05-10T14:45:45.834Z,56.14
2023-05-10T14:50:47.472Z,56.72
2023-05-10T14:55:48.964Z,56.55
2023-05-10T15:00:50.590Z,56.63
2023-05-10T15:05:53.051Z,55.92
2023-05-10T15:10:56.612Z,56.13
2023-05-10T15:15:58.216Z,56.69
2023-05-10T15:20:59.762Z,57.07
2023-05-10T15:26:01.540Z,55.54
2023-05-10T15:31:03.952Z,56.57
2023-05-10T15:36:05.561Z,56.06
2023-05-10T15:41:07.054Z,55.22
2023-05-10T15:46:08.626Z,55.44
2023-05-10T15:51:10.149Z,53.85
2023-05-10T15:56:11.852Z,54.59
2023-05-10T16:01:13.399Z,52.94
2023-05-10T16:06:14.942Z,53.93
2023-05-10T16:11:16.485Z,54.70
2023-05-10T16:16:18.212Z,53.31
2023-05-10T16:21:20.886Z,53.53
2023-05-10T16:26:22.243Z,53.41
2023-05-10T16:31:24.405Z,53.98
2023-05-10T16:36:26.109Z,53.46
2023-05-10T16:41:27.598Z,53.84
2023-05-10T16:46:29.162Z,54.30
2023-05-10T16:51:30.735Z,53.79
2023-05-10T16:56:32.244Z,54.33
2023-05-10T17:01:33.878Z,54.21
2023-05-10T17:06:35.888Z,54.40
2023-05-10T17:11:37.536Z,54.89
2023-05-10T17:16:39.167Z,54.33
2023-05-10T17:21:40.760Z,55.25
2023-05-10T17:26:42.251Z,55.95
2023-05-10T17:31:43.821Z,55.83
2023-05-10T17:36:45.362Z,56.25
2023-05-10T17:41:46.888Z,56.02
2023-05-10T17:46:48.381Z,56.39
2023-05-10T17:51:50.437Z,56.53
2023-05-10T17:56:51.964Z,57.21
2023-05-10T18:01:53.474Z,56.93
2023-05-10T18:07:01.375Z,57.16
2023-05-10T18:12:03.219Z,55.83
2023-05-10T18:17:05.011Z,55.76
2023-05-10T18:22:08.934Z,56.53
2023-05-10T18:27:12.180Z,56.83
2023-05-10T18:32:13.936Z,56.45
2023-05-10T18:37:15.685Z,57.04
2023-05-10T18:42:17.470Z,56.51
2023-05-10T18:47:19.116Z,56.08
2023-05-10T18:52:20.818Z,56.19
2023-05-10T18:57:22.475Z,56.94
2023-05-10T19:02:25.315Z,56.77
2023-05-10T19:07:26.890Z,56.91
2023-05-10T19:12:28.548Z,56.88
2023-05-10T19:17:31.561Z,57.01
2023-05-10T19:22:45.464Z,56.74
2023-05-10T19:27:57.913Z,55.91
2023-05-10T19:32:59.543Z,56.21
2023-05-10T19:38:01.092Z,57.27
2023-05-10T19:43:03.076Z,57.68
2023-05-10T19:48:04.753Z,57.38
2023-05-10T19:53:06.362Z,58.02
2023-05-10T19:58:07.961Z,58.14
2023-05-10T20:03:09.638Z,57.82
2023-05-10T20:08:11.177Z,56.98
2023-05-10T20:13:12.718Z,58.32
2023-05-10T20:18:14.248Z,58.83
2023-05-10T20:23:15.755Z,57.79
2023-05-10T20:28:23.974Z,58.65
2023-05-10T20:33:25.703Z,59.11
2023-05-10T20:38:27.229Z,59.11
2023-05-10T20:43:29.157Z,58.47
2023-05-10T20:48:33.291Z,58.87
2023-05-10T20:53:34.803Z,58.81
2023-05-10T20:58:36.302Z,58.51
2023-05-10T21:03:37.812Z,58.73
2023-05-10T21:08:39.320Z,59.12
2023-05-10T21:13:40.806Z,58.74
2023-05-10T21:18:42.343Z,59.47
2023-05-10T21:23:46.418Z,60.32
2023-05-10T21:28:47.910Z,59.67
2023-05-10T21:33:49.431Z,59.88
2023-05-10T21:38:50.919Z,60.02
2023-05-10T21:43:52.401Z,60.07
2023-05-10T21:48:53.955Z,59.88
2023-05-10T21:53:55.457Z,59.43
2023-05-10T21:58:57.104Z,59.32
2023-05-10T22:03:58.607Z,59.01
2023-05-10T22:09:00.148Z,59.02
2023-05-10T22:14:01.641Z,58.76
2023-05-10T22:19:03.187Z,59.86
2023-05-10T22:24:05.243Z,58.80
2023-05-10T22:29:06.787Z,59.08
2023-05-10T22:34:08.337Z,59.81
2023-05-10T22:39:09.832Z,58.00
2023-05-10T22:44:11.335Z,58.50
2023-05-10T22:49:13.293Z,58.59
2023-05-10T22:54:14.796Z,59.25
2023-05-10T22:59:16.541Z,58.86
2023-05-10T23:04:18.125Z,58.19
2023-05-10T23:09:19.690Z,59.57
2023-05-10T23:14:21.172Z,58.57
2023-05-10T23:19:22.665Z,58.31
2023-05-10T23:24:24.153Z,59.10
2023-05-10T23:29:26.311Z,59.14
2023-05-10T23:34:27.872Z,59.51
2023-05-10T23:39:29.486Z,57.55
2023-05-10T23:44:31.500Z,58.93
2023-05-10T23:49:32.998Z,57.89
2023-05-10T23:54:34.562Z,58.75
2023-05-10T23:59:36.254Z,59.17
